Time;durP1;ratioP1;P1;durP2;ratioP2;P2;SDS_P1;SDS_P2;PMS_P1;PMS_P2;Temp;Humidity;BMP_temperature;BMP_pressure;BME280_temperature;BME280_humidity;BME280_pressure;Samples;Min_cycle;Max_cycle;Signal;HPM_P1;HPM_P2
2021/03/30 00:01:48;;;;;;;18.40;15.70;;;;;;;9.20;100.00;101620.88;232782;1202;103531;-74
2021/03/30 00:06:49;;;;;;;19.50;16.45;;;;;;;9.19;100.00;101620.91;232861;1203;103232;-74
2021/03/30 00:11:50;;;;;;;19.27;16.53;;;;;;;9.14;100.00;101620.10;233122;1203;103142;-74
2021/03/30 00:16:52;;;;;;;17.77;15.87;;;;;;;9.10;100.00;101613.95;233262;1202;103120;-73
2021/03/30 00:21:53;;;;;;;16.75;14.55;;;;;;;9.20;100.00;101612.03;232910;1203;103232;-74
2021/03/30 00:26:55;;;;;;;20.37;16.60;;;;;;;9.21;100.00;101608.47;232842;1203;103293;-73
2021/03/30 00:31:56;;;;;;;17.43;15.53;;;;;;;9.16;100.00;101615.64;233196;1203;103571;-74
2021/03/30 00:36:58;;;;;;;16.67;14.83;;;;;;;9.15;100.00;101605.91;233187;1203;103213;-74
2021/03/30 00:41:59;;;;;;;17.60;13.70;;;;;;;9.15;100.00;101612.09;232837;1203;103168;-72
2021/03/30 00:47:02;;;;;;;17.33;14.60;;;;;;;9.25;100.00;101613.73;232780;1203;103155;-74
2021/03/30 00:52:05;;;;;;;19.55;17.20;;;;;;;9.17;100.00;101617.38;232821;1203;103229;-74
2021/03/30 00:57:07;;;;;;;17.25;15.40;;;;;;;9.15;100.00;101611.22;232819;1203;103216;-74
2021/03/30 01:02:09;;;;;;;17.25;13.60;;;;;;;9.14;100.00;101609.45;233365;1202;103143;-74
2021/03/30 01:07:10;;;;;;;19.45;15.10;;;;;;;9.18;100.00;101616.48;233642;1203;103162;-74
2021/03/30 01:12:40;;;;;;;20.83;17.73;;;;;;;9.13;100.00;101613.02;233092;1203;103510;-73
2021/03/30 01:18:10;;;;;;;17.60;15.10;;;;;;;9.08;100.00;101611.31;232709;1203;103236;-74
2021/03/30 01:23:40;;;;;;;16.13;14.37;;;;;;;9.09;100.00;101610.38;232786;1202;103274;-75
2021/03/30 01:28:47;;;;;;;18.10;15.40;;;;;;;9.20;100.00;101614.69;232844;1203;103629;-73
2021/03/30 01:33:51;;;;;;;18.80;16.83;;;;;;;9.15;100.00;101612.09;232776;1203;103204;-75
2021/03/30 01:38:53;;;;;;;20.73;17.10;;;;;;;9.06;100.00;101613.11;232769;1203;103201;-74
2021/03/30 01:43:55;;;;;;;18.67;15.87;;;;;;;9.04;100.00;101609.58;232768;1203;103599;-74
2021/03/30 01:48:59;;;;;;;21.07;16.27;;;;;;;9.09;100.00;101605.06;232837;1203;103235;-75
2021/03/30 01:54:01;;;;;;;17.00;15.35;;;;;;;9.16;100.00;101591.70;232873;1203;103597;-74
2021/03/30 01:59:06;;;;;;;19.03;16.33;;;;;;;9.15;100.00;101592.60;232854;1203;103116;-73
2021/03/30 02:04:08;;;;;;;21.80;18.07;;;;;;;9.16;100.00;101589.05;233065;1203;103232;-76
2021/03/30 02:09:16;;;;;;;18.30;16.40;;;;;;;9.22;100.00;101587.16;233476;1203;103203;-74
2021/03/30 02:14:18;;;;;;;24.70;20.28;;;;;;;9.21;100.00;101587.19;233521;1203;103514;-76
2021/03/30 02:19:24;;;;;;;20.80;16.70;;;;;;;9.14;100.00;101589.05;233530;1203;103137;-75
2021/03/30 02:24:29;;;;;;;22.68;17.15;;;;;;;9.13;100.00;101586.41;233286;1203;103132;-74
2021/03/30 02:29:33;;;;;;;20.30;17.70;;;;;;;9.23;100.00;101585.39;232828;1203;103222;-74
2021/03/30 02:34:37;;;;;;;17.95;16.05;;;;;;;9.23;100.00;101596.03;232856;1203;103143;-73
2021/03/30 02:39:41;;;;;;;23.03;19.43;;;;;;;9.27;100.00;101592.41;232891;1203;103152;-75
2021/03/30 02:44:45;;;;;;;21.00;16.45;;;;;;;9.19;100.00;101591.64;232868;1203;103178;-76
2021/03/30 02:49:47;;;;;;;21.07;17.47;;;;;;;9.18;100.00;101590.77;233580;1203;103656;-76
2021/03/30 02:54:49;;;;;;;20.80;17.10;;;;;;;9.25;100.00;101591.55;233039;1203;103117;-74
2021/03/30 03:00:12;;;;;;;23.75;16.65;;;;;;;9.30;100.00;101589.71;232958;1203;103547;-74
2021/03/30 03:05:14;;;;;;;22.38;17.88;;;;;;;9.28;100.00;101596.83;232871;1206;103226;-74
2021/03/30 03:10:16;;;;;;;20.68;16.53;;;;;;;9.29;100.00;101598.59;232820;1203;103225;-74
2021/03/30 03:15:20;;;;;;;21.47;16.70;;;;;;;9.29;100.00;101601.25;232939;1179;114795;-72
2021/03/30 03:20:24;;;;;;;20.80;17.00;;;;;;;9.21;100.00;101597.83;232533;1179;115127;-74
2021/03/30 03:25:25;;;;;;;20.90;17.70;;;;;;;9.17;100.00;101598.75;232853;1179;116638;-73
2021/03/30 03:30:28;;;;;;;22.33;16.73;;;;;;;9.17;100.00;101599.66;232656;1179;115055;-74
2021/03/30 03:35:30;;;;;;;19.50;15.85;;;;;;;9.20;100.00;101601.38;232599;1179;115277;-73
2021/03/30 03:40:33;;;;;;;17.60;15.10;;;;;;;9.11;100.00;101602.41;232455;1179;114898;-72
2021/03/30 03:45:36;;;;;;;19.27;16.67;;;;;;;9.04;100.00;101601.60;232694;1179;114915;-76
2021/03/30 03:50:38;;;;;;;19.83;15.33;;;;;;;9.04;100.00;101604.27;232404;1180;114924;-74
2021/03/30 03:55:47;;;;;;;17.00;14.47;;;;;;;9.07;100.00;101603.33;232369;1179;115023;-74
2021/03/30 04:00:49;;;;;;;21.05;16.43;;;;;;;9.04;100.00;101604.27;232749;1179;115289;-73
2021/03/30 04:06:14;;;;;;;21.58;16.65;;;;;;;9.03;100.00;101615.80;232394;1179;115761;-74
2021/03/30 04:11:16;;;;;;;20.47;16.73;;;;;;;8.99;100.00;101610.54;232833;1179;115431;-74
2021/03/30 04:16:18;;;;;;;19.65;16.30;;;;;;;9.06;100.00;101618.42;232691;1179;115203;-75
2021/03/30 04:21:30;;;;;;;18.83;15.43;;;;;;;9.08;100.00;101611.31;232598;1178;115115;-74
2021/03/30 04:26:31;;;;;;;19.25;15.18;;;;;;;9.14;100.00;101609.45;232709;1178;115401;-74
2021/03/30 04:31:33;;;;;;;22.15;16.10;;;;;;;9.16;100.00;101615.64;232407;1180;114904;-74
2021/03/30 04:36:35;;;;;;;21.80;17.55;;;;;;;9.04;100.00;101608.72;232419;1178;114792;-73
2021/03/30 04:41:36;;;;;;;22.45;15.90;;;;;;;9.00;100.00;101615.86;232483;1179;115115;-72
2021/03/30 04:46:38;;;;;;;21.85;17.30;;;;;;;8.96;100.00;101619.44;232505;1179;115190;-72
2021/03/30 04:51:39;;;;;;;22.63;18.40;;;;;;;9.01;100.00;101620.28;232439;1178;114868;-72
2021/03/30 04:56:40;;;;;;;18.80;15.30;;;;;;;8.98;100.00;101619.45;232636;1179;114821;-73
2021/03/30 05:01:42;;;;;;;19.40;17.17;;;;;;;9.03;100.00;101618.45;232932;1203;103204;-73
2021/03/30 05:06:44;;;;;;;21.40;16.80;;;;;;;9.11;100.00;101623.69;232710;1203;103216;-73
2021/03/30 05:11:45;;;;;;;20.50;16.25;;;;;;;9.14;100.00;101617.44;232814;1203;103140;-73
2021/03/30 05:16:46;;;;;;;21.63;19.33;;;;;;;9.13;100.00;101618.34;232837;1203;103139;-73
2021/03/30 05:21:48;;;;;;;24.70;19.20;;;;;;;9.19;100.00;101624.46;232874;1202;103220;-72
2021/03/30 05:26:49;;;;;;;20.90;18.68;;;;;;;9.20;100.00;101620.88;232845;1202;103139;-73
2021/03/30 05:31:51;;;;;;;20.20;18.10;;;;;;;9.27;100.00;101627.00;232851;1203;103248;-73
2021/03/30 05:36:52;;;;;;;22.13;19.90;;;;;;;9.29;100.00;101629.63;232845;1203;103243;-73
2021/03/30 05:41:54;;;;;;;23.33;20.43;;;;;;;9.33;100.00;101623.38;232842;1203;103144;-73
2021/03/30 05:47:09;;;;;;;21.35;18.85;;;;;;;9.26;100.00;101630.55;232847;1203;103207;-73
2021/03/30 05:52:29;;;;;;;23.50;19.75;;;;;;;9.30;100.00;101613.66;232854;1203;103536;-74
2021/03/30 05:57:31;;;;;;;23.20;19.80;;;;;;;9.30;100.00;101626.97;232897;1203;103552;-75
2021/03/30 06:02:44;;;;;;;24.98;21.58;;;;;;;9.35;100.00;101618.88;233154;1203;103209;-73
2021/03/30 06:07:45;;;;;;;20.52;18.15;;;;;;;9.41;100.00;101619.69;233594;1203;103177;-75
2021/03/30 06:12:47;;;;;;;26.98;23.28;;;;;;;9.50;100.00;101623.11;232910;1203;103153;-73
2021/03/30 06:17:51;;;;;;;25.70;20.80;;;;;;;9.53;100.00;101623.05;232786;1203;103207;-73
2021/03/30 06:23:01;;;;;;;21.70;19.10;;;;;;;9.60;100.00;101618.52;232782;1203;103184;-73
2021/03/30 06:28:12;;;;;;;24.03;21.43;;;;;;;9.83;100.00;101618.12;232860;1203;103598;-74
2021/03/30 06:33:13;;;;;;;20.50;18.30;;;;;;;9.90;100.00;101638.41;232877;1203;103245;-74
2021/03/30 06:38:15;;;;;;;25.88;19.30;;;;;;;10.10;100.00;101639.84;232886;1203;103264;-73
2021/03/30 06:48:54;;;;;;;30.20;22.20;;;;;;;10.32;100.00;101648.34;232575;1203;103376;-73
2021/03/30 06:54:08;;;;;;;25.20;20.20;;;;;;;10.44;100.00;101639.23;232847;1203;103220;-73
2021/03/30 06:59:09;;;;;;;18.80;16.40;;;;;;;10.40;100.00;101637.55;233323;1203;103213;-74
2021/03/30 07:04:12;;;;;;;22.65;17.93;;;;;;;10.50;100.00;101633.81;233835;1202;103689;-74
2021/03/30 07:09:17;;;;;;;29.47;21.03;;;;;;;10.63;100.00;101648.65;233653;1202;103146;-73
2021/03/30 07:14:18;;;;;;;20.00;16.80;;;;;;;10.68;100.00;101653.86;233385;1203;103204;-74
2021/03/30 07:19:27;;;;;;;21.50;16.70;;;;;;;10.63;100.00;101658.41;233561;1203;103216;-72
2021/03/30 07:24:41;;;;;;;24.80;17.97;;;;;;;10.79;100.00;101662.54;232879;1203;103743;-74
2021/03/30 07:29:47;;;;;;;22.73;18.20;;;;;;;10.94;100.00;101666.66;232805;1203;103225;-73
2021/03/30 07:35:01;;;;;;;19.10;17.00;;;;;;;11.11;100.00;101670.77;233509;1203;103198;-74
2021/03/30 07:40:06;;;;;;;20.20;17.40;;;;;;;11.12;100.00;101669.86;233193;1203;103133;-75
2021/03/30 07:45:11;;;;;;;20.03;16.95;;;;;;;11.12;100.00;101669.86;233582;1203;103200;-75
2021/03/30 07:50:16;;;;;;;19.00;15.30;;;;;;;11.15;100.00;101670.67;233023;1203;104332;-73
2021/03/30 07:55:28;;;;;;;20.87;16.33;;;;;;;11.18;100.00;101674.16;232974;1203;103146;-73
2021/03/30 08:00:33;;;;;;;25.30;18.65;;;;;;;11.29;100.00;101674.82;232919;1203;103217;-74
2021/03/30 08:05:35;;;;;;;19.60;16.30;;;;;;;11.36;100.00;101678.22;232773;1203;103213;-73
2021/03/30 08:10:46;;;;;;;26.10;19.77;;;;;;;11.45;100.00;101684.22;232792;1203;103210;-73
2021/03/30 08:15:50;;;;;;;20.23;17.30;;;;;;;11.44;100.00;101685.16;233026;1201;103178;-74
2021/03/30 08:21:03;;;;;;;23.07;19.80;;;;;;;11.49;100.00;101690.37;232869;1203;103217;-73
2021/03/30 08:26:24;;;;;;;23.80;20.65;;;;;;;11.52;100.00;101695.65;232882;1202;103574;-76
2021/03/30 08:31:35;;;;;;;25.00;18.90;;;;;;;11.67;100.00;101699.73;233129;1203;103725;-73
2021/03/30 08:36:56;;;;;;;20.80;18.45;;;;;;;11.79;100.00;101688.78;233527;1203;103218;-75
2021/03/30 08:42:01;;;;;;;17.77;15.90;;;;;;;11.91;100.00;101687.58;233569;1202;103204;-74
2021/03/30 08:47:03;;;;;;;25.85;21.40;;;;;;;12.00;100.00;101686.52;233714;1203;103587;-73
2021/03/30 08:52:10;;;;;;;25.65;19.65;;;;;;;11.98;100.00;101692.83;233869;1203;103152;-74
2021/03/30 08:57:13;;;;;;;20.05;17.35;;;;;;;11.97;100.00;101691.93;234307;1203;103210;-72
2021/03/30 09:02:24;;;;;;;21.25;18.90;;;;;;;11.96;100.00;101684.80;233511;1203;104322;-73
2021/03/30 09:07:26;;;;;;;17.43;15.05;;;;;;;11.80;100.00;101690.52;232818;1203;103280;-73
2021/03/30 09:12:30;;;;;;;20.80;18.15;;;;;;;11.70;100.00;101694.34;233065;1203;103120;-73
2021/03/30 09:17:33;;;;;;;22.57;20.30;;;;;;;11.68;100.00;101695.30;233160;1202;103612;-73
2021/03/30 09:22:37;;;;;;;24.83;20.73;;;;;;;11.59;100.00;101702.61;233341;1202;103389;-73
2021/03/30 09:27:41;;;;;;;20.60;18.50;;;;;;;11.48;100.00;101710.00;233436;1203;103219;-73
2021/03/30 09:32:45;;;;;;;28.17;25.37;;;;;;;11.42;100.00;101707.44;233524;1203;103551;-73
2021/03/30 09:37:48;;;;;;;21.40;19.30;;;;;;;11.48;100.00;101705.52;233587;1203;103159;-75
2021/03/30 09:42:51;;;;;;;31.77;28.37;;;;;;;11.78;100.00;101697.70;232887;1203;103163;-73
2021/03/30 09:47:54;;;;;;;23.97;21.77;;;;;;;11.94;100.00;101705.36;232989;1203;103367;-74
2021/03/30 09:53:09;;;;;;;17.75;16.05;;;;;;;12.00;100.00;101698.98;232785;1203;103568;-74
2021/03/30 09:58:13;;;;;;;18.75;16.95;;;;;;;12.29;100.00;101698.26;232785;1203;103257;-74
2021/03/30 10:03:16;;;;;;;18.43;16.63;;;;;;;12.55;100.00;101702.88;233223;1203;103219;-73
2021/03/30 10:08:18;;;;;;;14.10;12.80;;;;;;;12.41;100.00;101700.60;233658;1203;103207;-74
2021/03/30 10:13:30;;;;;;;11.83;10.78;;;;;;;12.19;100.00;101702.97;233640;1202;103226;-75
2021/03/30 10:18:33;;;;;;;13.05;11.85;;;;;;;12.02;100.00;101702.52;233630;1203;103623;-74
2021/03/30 10:23:50;;;;;;;12.10;10.87;;;;;;;12.17;100.00;101696.78;233942;1202;103590;-73
2021/03/30 10:28:59;;;;;;;13.20;10.65;;;;;;;12.43;100.00;101696.09;233519;1203;103139;-73
2021/03/30 10:34:01;;;;;;;12.17;10.97;;;;;;;12.22;100.00;101697.53;232767;1203;103146;-75
2021/03/30 10:39:10;;;;;;;13.87;12.57;;;;;;;12.11;100.00;101696.94;232911;1203;103249;-75
2021/03/30 10:44:17;;;;;;;9.43;8.45;;;;;;;12.05;100.00;101705.98;233576;1203;104364;-74
2021/03/30 10:49:19;;;;;;;6.00;5.40;;;;;;;11.99;100.00;101698.13;233552;1202;103615;-74
2021/03/30 10:54:21;;;;;;;6.25;5.30;;;;;;;11.94;100.00;101706.22;232799;1203;103110;-75
2021/03/30 10:59:24;;;;;;;8.80;7.90;;;;;;;12.07;100.00;101708.61;233822;1203;103210;-73
2021/03/30 11:04:26;;;;;;;11.00;9.90;;;;;;;12.05;100.00;101714.00;233533;1203;103325;-76
2021/03/30 11:09:28;;;;;;;14.73;13.27;;;;;;;12.02;100.00;101710.53;233375;1203;103216;-74
2021/03/30 11:14:30;;;;;;;14.05;12.70;;;;;;;11.99;100.00;101706.14;233555;1203;103216;-72
2021/03/30 11:19:32;;;;;;;16.85;14.60;;;;;;;12.00;100.00;101707.01;232802;1203;103216;-74
2021/03/30 11:24:35;;;;;;;16.27;14.77;;;;;;;11.89;100.00;101700.12;233127;1202;103219;-74
2021/03/30 11:29:44;;;;;;;16.38;14.80;;;;;;;11.99;100.00;101692.78;233515;1203;103219;-74
2021/03/30 11:39:48;;;;;;;16.17;14.57;;;;;;;11.99;100.00;101689.21;232847;1203;103609;-75
2021/03/30 11:44:49;;;;;;;14.23;12.33;;;;;;;12.08;100.00;101687.22;232797;1203;104512;-74
2021/03/30 11:49:51;;;;;;;17.75;15.85;;;;;;;12.04;100.00;101676.63;232987;1203;103152;-74
2021/03/30 11:54:52;;;;;;;12.95;11.25;;;;;;;12.06;100.00;101669.43;232756;1203;103278;-73
2021/03/30 11:59:54;;;;;;;13.30;11.90;;;;;;;12.06;100.00;101669.43;232997;1203;103213;-74
2021/03/30 12:04:56;;;;;;;10.20;9.18;;;;;;;12.01;100.00;101668.68;233568;1203;103267;-73
2021/03/30 12:09:57;;;;;;;8.27;7.47;;;;;;;12.05;100.00;101665.89;233559;1203;103226;-73
2021/03/30 12:14:59;;;;;;;8.50;7.60;;;;;;;12.24;100.00;101674.31;233243;1203;103210;-74
2021/03/30 12:20:01;;;;;;;9.33;6.70;;;;;;;12.09;100.00;101664.02;233057;1203;103302;-74
2021/03/30 12:25:05;;;;;;;8.60;6.80;;;;;;;12.08;100.00;101665.83;233481;1203;103621;-73
2021/03/30 12:30:07;;;;;;;7.30;5.80;;;;;;;12.17;100.00;101655.79;234975;1202;103273;-74
2021/03/30 12:35:09;;;;;;;6.63;5.70;;;;;;;11.95;100.00;101662.55;235410;1203;103136;-74
2021/03/30 12:40:11;;;;;;;7.10;5.90;;;;;;;12.04;100.00;101655.25;233226;1203;103213;-73
2021/03/30 12:45:13;;;;;;;8.37;5.83;;;;;;;12.10;100.00;101658.63;233498;1201;103246;-73
2021/03/30 12:50:15;;;;;;;8.60;6.80;;;;;;;12.08;100.00;101664.94;233638;1203;103209;-74
2021/03/30 12:55:17;;;;;;;7.68;5.68;;;;;;;12.10;100.00;101655.95;233752;1202;103124;-73
2021/03/30 13:00:19;;;;;;;8.67;6.40;;;;;;;12.16;100.00;101649.58;233602;1202;103622;-74
2021/03/30 13:05:21;;;;;;;6.80;6.10;;;;;;;12.18;100.00;101646.86;233315;1203;103146;-73
2021/03/30 13:10:23;;;;;;;6.20;5.60;;;;;;;12.16;100.00;101646.04;233005;1203;103191;-74
2021/03/30 13:15:25;;;;;;;7.85;6.65;;;;;;;12.13;100.00;101644.30;232957;1203;103142;-73
2021/03/30 13:20:26;;;;;;;7.30;6.60;;;;;;;12.21;100.00;101650.33;233348;1203;103300;-73
2021/03/30 13:25:34;;;;;;;8.35;7.55;;;;;;;12.12;100.00;101653.27;233588;1203;103220;-73
2021/03/30 13:30:37;;;;;;;6.80;6.15;;;;;;;12.13;100.00;101646.97;233588;1202;103133;-74
2021/03/30 13:35:38;;;;;;;7.05;6.40;;;;;;;12.16;100.00;101638.88;233469;1203;103345;-74
2021/03/30 13:40:40;;;;;;;8.27;5.87;;;;;;;12.14;100.00;101640.72;233609;1202;103190;-74
2021/03/30 13:45:42;;;;;;;7.90;7.10;;;;;;;12.18;100.00;101639.73;234049;1203;103130;-74
2021/03/30 13:50:43;;;;;;;17.20;14.37;;;;;;;12.16;100.00;101638.02;233476;1203;103219;-73
2021/03/30 13:55:45;;;;;;;11.20;8.40;;;;;;;12.19;100.00;101638.82;233145;1203;103235;-74
2021/03/30 14:00:46;;;;;;;10.13;9.13;;;;;;;12.15;100.00;101630.92;234142;1202;103293;-74
2021/03/30 14:05:48;;;;;;;9.40;8.00;;;;;;;12.10;100.00;101634.57;234034;1203;103225;-73
2021/03/30 14:10:49;;;;;;;8.20;7.40;;;;;;;12.16;100.00;101628.19;234116;1202;103127;-73
2021/03/30 14:15:56;;;;;;;9.55;8.35;;;;;;;12.15;100.00;101626.44;234998;1202;103140;-75
2021/03/30 14:21:07;;;;;;;9.40;7.40;;;;;;;12.17;100.00;101618.36;233941;1203;103220;-73
2021/03/30 14:26:19;;;;;;;8.70;7.10;;;;;;;12.11;100.00;101620.30;233269;1202;104321;-74
2021/03/30 14:31:23;;;;;;;9.90;7.70;;;;;;;12.18;100.00;101615.67;233529;1202;103452;-76
2021/03/30 14:36:25;;;;;;;8.10;7.30;;;;;;;12.14;100.00;101613.98;233416;1202;103156;-73
2021/03/30 14:41:37;;;;;;;11.00;9.98;;;;;;;12.19;100.00;101622.78;233995;1202;103165;-74
2021/03/30 14:47:02;;;;;;;9.33;8.40;;;;;;;12.13;100.00;101622.91;234002;1203;103219;-74
2021/03/30 15:07:46;;;;;;;9.83;7.90;;;;;;;12.16;100.00;101601.47;233002;1203;104227;-73
2021/03/30 15:12:47;;;;;;;8.63;7.80;;;;;;;12.22;100.00;101606.64;233061;1202;103209;-73
2021/03/30 15:17:49;;;;;;;9.90;9.00;;;;;;;12.14;100.00;101603.29;233205;1203;103303;-74
2021/03/30 15:22:52;;;;;;;10.33;8.37;;;;;;;12.13;100.00;101601.53;233463;1203;103143;-73
2021/03/30 15:27:54;;;;;;;9.13;8.23;;;;;;;12.26;100.00;101591.39;232907;1181;114641;-73
2021/03/30 15:32:55;;;;;;;11.80;10.00;;;;;;;12.31;100.00;101588.59;232445;1177;115023;-72
2021/03/30 15:37:57;;;;;;;12.30;11.10;;;;;;;12.31;100.00;101585.92;232921;1179;116162;-75
2021/03/30 15:42:58;;;;;;;11.80;9.03;;;;;;;12.30;100.00;101578.81;233098;1179;115603;-74
2021/03/30 15:48:03;;;;;;;14.40;12.18;;;;;;;12.23;100.00;101587.02;233332;1179;115205;-74
2021/03/30 15:53:07;;;;;;;11.08;9.35;;;;;;;12.32;100.00;101582.33;233427;1177;115025;-75
2021/03/30 15:58:08;;;;;;;10.10;9.10;;;;;;;12.26;100.00;101578.88;233219;1180;115207;-77
2021/03/30 16:03:10;;;;;;;8.55;7.70;;;;;;;12.24;100.00;101580.75;233339;1179;114975;-76
2021/03/30 16:08:12;;;;;;;9.95;8.90;;;;;;;12.26;100.00;101573.53;233361;1179;114688;-75
2021/03/30 16:13:13;;;;;;;10.70;9.60;;;;;;;12.32;100.00;101585.00;233471;1180;114883;-74
2021/03/30 16:18:15;;;;;;;10.18;9.25;;;;;;;12.23;100.00;101565.63;233458;1179;114876;-74
2021/03/30 16:23:16;;;;;;;9.63;8.65;;;;;;;12.26;100.00;101567.33;233875;1177;114820;-79
2021/03/30 16:28:20;;;;;;;10.83;9.00;;;;;;;12.26;100.00;101575.34;233802;1178;115022;-78
2021/03/30 16:33:22;;;;;;;9.10;8.20;;;;;;;12.31;100.00;101588.59;233919;1179;115057;-77
2021/03/30 16:38:23;;;;;;;12.35;11.10;;;;;;;12.32;100.00;101590.34;233798;1179;115077;-77
2021/03/30 16:43:24;;;;;;;9.70;8.45;;;;;;;12.19;100.00;101585.35;233658;1178;115237;-80
2021/03/30 16:48:26;;;;;;;9.10;8.27;;;;;;;12.25;100.00;101585.18;233828;1178;114970;-78
2021/03/30 16:53:27;;;;;;;10.13;8.97;;;;;;;12.34;100.00;101580.47;233789;1179;114762;-75
2021/03/30 16:58:29;;;;;;;10.95;9.85;;;;;;;12.36;100.00;101590.22;233995;1179;114711;-73
2021/03/30 17:03:31;;;;;;;12.57;11.27;;;;;;;12.36;100.00;101587.55;234824;1179;115320;-76
2021/03/30 17:08:33;;;;;;;12.05;10.80;;;;;;;12.22;100.00;101590.59;233536;1178;115923;-74
2021/03/30 17:13:36;;;;;;;13.35;10.90;;;;;;;12.24;100.00;101594.11;233157;1179;115375;-77
2021/03/30 17:18:37;;;;;;;12.83;11.28;;;;;;;12.34;100.00;101597.41;233178;1179;115385;-78
2021/03/30 17:23:41;;;;;;;14.30;12.80;;;;;;;12.28;100.00;101598.44;233048;1179;115498;-75
2021/03/30 17:28:43;;;;;;;14.17;12.60;;;;;;;12.20;100.00;101597.77;233226;1178;115373;-75
2021/03/30 17:33:44;;;;;;;14.98;12.73;;;;;;;12.19;100.00;101603.17;233155;1179;115121;-75
2021/03/30 17:38:46;;;;;;;16.33;12.45;;;;;;;12.23;100.00;101597.70;233260;1179;115333;-75
2021/03/30 17:43:48;;;;;;;17.60;13.35;;;;;;;12.24;100.00;101599.46;233210;1179;115128;-71
2021/03/30 17:48:49;;;;;;;13.70;12.20;;;;;;;12.14;100.00;101592.59;233313;1179;115936;-73
2021/03/30 17:53:50;;;;;;;16.03;13.40;;;;;;;12.10;100.00;101598.96;233141;1180;115155;-76
2021/03/30 17:58:52;;;;;;;16.77;13.63;;;;;;;12.22;100.00;101598.62;233152;1179;116311;-76
2021/03/30 18:03:53;;;;;;;19.10;16.00;;;;;;;12.22;100.00;101598.62;233060;1179;114921;-75
2021/03/30 18:08:55;;;;;;;18.40;16.00;;;;;;;12.18;100.00;101598.73;233265;1180;115001;-77
2021/03/30 18:13:56;;;;;;;18.30;16.43;;;;;;;12.14;100.00;101591.73;233257;1180;115455;-77
2021/03/30 18:18:58;;;;;;;16.43;14.83;;;;;;;12.12;100.00;101591.79;233372;1179;115539;-75
2021/03/30 18:23:59;;;;;;;19.08;16.95;;;;;;;12.23;100.00;101602.16;233405;1179;115332;-79
2021/03/30 18:29:02;;;;;;;19.80;17.70;;;;;;;12.18;100.00;101588.94;233414;1179;115152;-78
2021/03/30 18:34:03;;;;;;;17.30;15.60;;;;;;;12.15;100.00;101594.36;233090;1178;115152;-78
2021/03/30 18:39:05;;;;;;;18.23;16.27;;;;;;;12.18;100.00;101594.28;233315;1178;115144;-75
2021/03/30 18:44:07;;;;;;;18.95;16.60;;;;;;;12.20;100.00;101587.08;233063;1179;115552;-75
2021/03/30 18:49:09;;;;;;;16.25;14.40;;;;;;;12.13;100.00;101587.30;233258;1178;115031;-80
2021/03/30 18:54:16;;;;;;;19.00;16.40;;;;;;;12.06;100.00;101583.91;233772;1179;115514;-78
2021/03/30 18:59:18;;;;;;;17.87;16.00;;;;;;;12.00;100.00;101584.08;233321;1180;115327;-78
2021/03/30 19:04:20;;;;;;;18.93;16.37;;;;;;;11.97;100.00;101573.49;233383;1179;115202;-75
2021/03/30 19:09:21;;;;;;;20.90;18.70;;;;;;;11.90;100.00;101570.95;233303;1178;115503;-75
2021/03/30 19:14:23;;;;;;;18.05;16.15;;;;;;;11.75;100.00;101569.55;233133;1179;116034;-79
2021/03/30 19:19:24;;;;;;;19.10;16.90;;;;;;;11.70;100.00;101565.27;233360;1179;114926;-77
2021/03/30 19:24:26;;;;;;;18.90;16.50;;;;;;;11.74;100.00;101561.58;233191;1178;115652;-76
2021/03/30 19:29:27;;;;;;;19.35;17.20;;;;;;;11.55;100.00;101563.84;233150;1180;115074;-75
2021/03/30 19:34:35;;;;;;;21.65;18.60;;;;;;;11.50;100.00;101569.30;233522;1180;115299;-77
2021/03/30 19:39:37;;;;;;;18.65;16.85;;;;;;;11.52;100.00;101553.26;234989;1180;115260;-76
2021/03/30 19:44:39;;;;;;;21.65;19.40;;;;;;;11.41;100.00;101553.53;234031;1178;114962;-76
2021/03/30 19:49:40;;;;;;;21.57;17.40;;;;;;;11.29;100.00;101544.89;234640;1178;115428;-78
2021/03/30 19:54:41;;;;;;;16.00;14.40;;;;;;;11.28;100.00;101548.47;233312;1179;114916;-80
2021/03/30 19:59:43;;;;;;;20.35;18.20;;;;;;;11.25;100.00;101545.89;233212;1178;114945;-74
2021/03/30 20:04:45;;;;;;;19.00;17.00;;;;;;;11.12;100.00;101544.44;233310;1178;115133;-72
2021/03/30 20:09:47;;;;;;;22.30;19.60;;;;;;;11.15;100.00;101536.34;233358;1179;115035;-75
2021/03/30 20:14:49;;;;;;;20.43;18.30;;;;;;;11.07;100.00;101535.64;233490;1180;115218;-74
2021/03/30 20:19:51;;;;;;;18.17;16.47;;;;;;;11.11;100.00;101532.00;233616;1180;115062;-74
2021/03/30 20:24:52;;;;;;;18.73;16.80;;;;;;;11.08;100.00;101529.39;233460;1179;115080;-76
2021/03/30 20:29:54;;;;;;;22.13;19.83;;;;;;;11.08;100.00;101532.96;233366;1179;116338;-75
2021/03/30 20:34:55;;;;;;;23.28;18.18;;;;;;;10.97;100.00;101534.98;233177;1179;115146;-77
2021/03/30 20:39:57;;;;;;;19.20;17.50;;;;;;;10.93;100.00;101528.84;233329;1178;114999;-76
2021/03/30 20:44:58;;;;;;;19.90;17.90;;;;;;;10.87;100.00;101522.80;233212;1179;115127;-77
2021/03/30 20:50:00;;;;;;;20.50;18.40;;;;;;;10.87;100.00;101518.32;233060;1170;115566;-76
2021/03/30 20:55:03;;;;;;;21.60;18.33;;;;;;;10.77;100.00;101514.13;233199;1180;115067;-75
2021/03/30 21:00:10;;;;;;;20.20;18.30;;;;;;;10.76;100.00;101507.89;233681;1180;114707;-74
2021/03/30 21:05:13;;;;;;;18.63;16.70;;;;;;;10.75;100.00;101506.14;233631;1203;103140;-78
2021/03/30 21:10:15;;;;;;;20.77;18.53;;;;;;;10.72;100.00;101500.89;233702;1203;103242;-73
2021/03/30 21:15:22;;;;;;;20.70;18.50;;;;;;;10.64;100.00;101514.38;233541;1203;103145;-76
2021/03/30 21:20:24;;;;;;;20.40;18.30;;;;;;;10.57;100.00;101502.13;233577;1203;103152;-78
2021/03/30 21:25:25;;;;;;;19.83;17.90;;;;;;;10.48;100.00;101496.99;233561;1203;103155;-75
2021/03/30 21:30:27;;;;;;;20.30;18.10;;;;;;;10.47;100.00;101503.23;233575;1203;103196;-74
2021/03/30 21:35:28;;;;;;;20.33;18.23;;;;;;;10.41;100.00;101500.70;233529;1203;103188;-75
2021/03/30 21:40:30;;;;;;;17.85;16.05;;;;;;;10.36;100.00;101491.00;233577;1203;103523;-76
2021/03/30 21:45:31;;;;;;;18.17;16.27;;;;;;;10.35;100.00;101486.58;233606;1203;103139;-75
2021/03/30 21:50:33;;;;;;;19.65;17.40;;;;;;;10.34;100.00;101487.48;233553;1202;103219;-76
2021/03/30 21:55:34;;;;;;;20.20;18.18;;;;;;;10.24;100.00;101482.38;233528;1203;103223;-72
2021/03/30 22:00:36;;;;;;;20.03;18.07;;;;;;;10.24;100.00;101483.23;233630;1203;103229;-74
2021/03/30 22:05:37;;;;;;;17.90;16.10;;;;;;;10.22;100.00;101482.38;233382;1203;103216;-75
2021/03/30 22:10:44;;;;;;;18.43;16.58;;;;;;;10.31;100.00;101482.20;232922;1203;103148;-73
2021/03/30 22:16:07;;;;;;;19.88;18.00;;;;;;;10.26;100.00;101476.09;233344;1202;103217;-72
2021/03/30 22:21:09;;;;;;;18.17;16.47;;;;;;;10.16;100.00;101483.41;233673;1203;104030;-72
2021/03/30 22:26:16;;;;;;;19.83;17.83;;;;;;;10.09;100.00;101484.45;233842;1202;103287;-75
2021/03/30 22:31:17;;;;;;;17.87;16.10;;;;;;;10.10;100.00;101485.31;234573;1203;103201;-73
2021/03/30 22:36:20;;;;;;;19.70;17.90;;;;;;;9.99;100.00;101483.77;233954;1203;103197;-73
2021/03/30 22:41:22;;;;;;;19.65;17.75;;;;;;;9.84;100.00;101489.39;233203;1203;103228;-74
2021/03/30 22:46:24;;;;;;;19.77;17.93;;;;;;;9.85;100.00;101496.47;232823;1203;103187;-75
2021/03/30 22:51:26;;;;;;;20.20;18.10;;;;;;;9.84;100.00;101494.71;233695;1203;103616;-74